createdAt,value
2023-08-15T00:00:07.130Z,374.00
2023-08-15T00:01:07.205Z,376.00
2023-08-15T00:02:07.170Z,378.00
2023-08-15T00:03:07.301Z,377.00
2023-08-15T00:04:07.206Z,377.00
2023-08-15T00:05:07.261Z,375.00
2023-08-15T00:06:07.263Z,377.00
2023-08-15T00:07:07.366Z,375.00
2023-08-15T00:08:07.314Z,375.00
2023-08-15T00:09:07.323Z,373.00
2023-08-15T00:10:07.369Z,372.00
2023-08-15T00:11:07.387Z,372.00
2023-08-15T00:12:07.403Z,377.00
2023-08-15T00:13:07.432Z,379.00
2023-08-15T00:14:07.490Z,380.00
2023-08-15T00:15:07.478Z,379.00
2023-08-15T00:16:07.496Z,381.00
2023-08-15T00:17:07.528Z,377.00
2023-08-15T00:18:07.631Z,377.00
2023-08-15T00:19:07.563Z,376.00
2023-08-15T00:20:07.612Z,377.00
2023-08-15T00:21:07.638Z,379.00
2023-08-15T00:22:07.675Z,381.00
2023-08-15T00:23:07.698Z,382.00
2023-08-15T00:24:07.712Z,381.00
2023-08-15T00:25:07.731Z,380.00
2023-08-15T00:26:07.764Z,381.00
2023-08-15T00:27:07.810Z,385.00
2023-08-15T00:28:07.801Z,387.00
2023-08-15T00:29:07.830Z,386.00
2023-08-15T00:30:07.856Z,386.00
2023-08-15T00:31:07.896Z,388.00
2023-08-15T00:32:08.007Z,386.00
2023-08-15T00:33:08.010Z,386.00
2023-08-15T00:34:07.956Z,387.00
2023-08-15T00:35:07.989Z,386.00
2023-08-15T00:36:08.017Z,386.00
2023-08-15T00:37:08.036Z,389.00
2023-08-15T00:38:08.078Z,390.00
2023-08-15T00:39:08.098Z,389.00
2023-08-15T00:40:08.130Z,390.00
2023-08-15T00:41:08.153Z,391.00
2023-08-15T00:42:08.149Z,391.00
2023-08-15T00:43:08.183Z,390.00
2023-08-15T00:44:08.196Z,392.00
2023-08-15T00:45:08.219Z,391.00
2023-08-15T00:46:08.281Z,393.00
2023-08-15T00:47:08.272Z,393.00
2023-08-15T00:48:08.331Z,394.00
2023-08-15T00:49:08.320Z,392.00
2023-08-15T00:50:08.347Z,390.00
2023-08-15T00:51:08.371Z,390.00
2023-08-15T00:52:08.400Z,389.00
2023-08-15T00:53:08.433Z,390.00
2023-08-15T00:54:08.452Z,390.00
2023-08-15T00:55:08.497Z,389.00
2023-08-15T00:56:08.507Z,386.00
2023-08-15T00:57:08.559Z,383.00
2023-08-15T00:58:08.556Z,381.00
2023-08-15T00:59:08.586Z,380.00
2023-08-15T01:00:08.606Z,378.00
2023-08-15T01:01:08.646Z,377.00
2023-08-15T01:02:08.706Z,381.00
2023-08-15T01:03:08.755Z,381.00
2023-08-15T01:04:08.708Z,382.00
2023-08-15T01:05:08.731Z,382.00
2023-08-15T01:06:08.758Z,384.00
2023-08-15T01:07:08.774Z,386.00
2023-08-15T01:08:08.821Z,388.00
2023-08-15T01:09:08.827Z,389.00
2023-08-15T01:10:08.850Z,390.00
2023-08-15T01:11:15.962Z,390.00
2023-08-15T01:12:08.874Z,389.00
2023-08-15T01:13:08.866Z,389.00
2023-08-15T01:14:08.861Z,387.00
2023-08-15T01:15:08.839Z,384.00
2023-08-15T01:16:08.919Z,385.00
2023-08-15T01:17:09.479Z,386.00
2023-08-15T01:18:08.890Z,384.00
2023-08-15T01:19:08.816Z,383.00
2023-08-15T01:20:08.808Z,383.00
2023-08-15T01:21:08.800Z,383.00
2023-08-15T01:22:08.797Z,385.00
2023-08-15T01:23:08.831Z,386.00
2023-08-15T01:24:08.782Z,386.00
2023-08-15T01:25:08.788Z,388.00
2023-08-15T01:26:08.769Z,388.00
2023-08-15T01:27:08.762Z,386.00
2023-08-15T01:28:08.762Z,387.00
2023-08-15T01:29:08.747Z,388.00
2023-08-15T01:30:08.743Z,387.00
2023-08-15T01:31:08.741Z,387.00
2023-08-15T01:32:08.733Z,386.00
2023-08-15T01:33:08.818Z,385.00
2023-08-15T01:34:08.717Z,385.00
2023-08-15T01:35:08.716Z,387.00
2023-08-15T01:36:08.707Z,388.00
2023-08-15T01:37:08.693Z,386.00
2023-08-15T01:38:08.701Z,385.00
2023-08-15T01:39:08.700Z,386.00
2023-08-15T01:40:08.694Z,383.00
2023-08-15T01:41:08.682Z,381.00
2023-08-15T01:42:08.681Z,383.00
2023-08-15T01:43:08.659Z,383.00
2023-08-15T01:44:08.651Z,383.00
2023-08-15T01:45:08.648Z,385.00
2023-08-15T01:46:08.666Z,386.00
2023-08-15T01:47:08.638Z,386.00
2023-08-15T01:48:08.726Z,385.00
2023-08-15T01:49:08.621Z,384.00
2023-08-15T01:50:08.612Z,383.00
2023-08-15T01:51:08.613Z,385.00
2023-08-15T01:52:08.632Z,383.00
2023-08-15T01:53:08.593Z,381.00
2023-08-15T01:54:08.585Z,381.00
2023-08-15T01:55:08.581Z,381.00
2023-08-15T01:56:08.629Z,381.00
2023-08-15T01:57:08.632Z,383.00
2023-08-15T01:58:08.661Z,383.00
2023-08-15T01:59:08.687Z,382.00
2023-08-15T02:00:08.708Z,381.00
2023-08-15T02:01:08.798Z,380.00
2023-08-15T02:02:08.771Z,380.00
2023-08-15T02:03:08.806Z,377.00
2023-08-15T02:04:08.829Z,379.00
2023-08-15T02:05:08.892Z,380.00
2023-08-15T02:06:08.895Z,380.00
2023-08-15T02:07:08.918Z,381.00
2023-08-15T02:08:08.941Z,381.00
2023-08-15T02:09:08.978Z,382.00
2023-08-15T02:10:08.996Z,383.00
2023-08-15T02:11:09.099Z,384.00
2023-08-15T02:12:09.070Z,385.00
2023-08-15T02:13:09.080Z,387.00
2023-08-15T02:14:09.187Z,389.00
2023-08-15T02:15:09.133Z,385.00
2023-08-15T02:16:09.198Z,382.00
2023-08-15T02:17:09.181Z,381.00
2023-08-15T02:18:09.255Z,382.00
2023-08-15T02:19:09.250Z,382.00
2023-08-15T02:20:09.246Z,382.00
2023-08-15T02:21:09.289Z,382.00
2023-08-15T02:22:09.298Z,381.00
2023-08-15T02:23:09.328Z,382.00
2023-08-15T02:24:09.359Z,383.00
2023-08-15T02:25:09.373Z,380.00
2023-08-15T02:26:09.419Z,379.00
2023-08-15T02:27:09.412Z,380.00
2023-08-15T02:28:09.456Z,380.00
2023-08-15T02:29:09.488Z,379.00
2023-08-15T02:30:09.534Z,379.00
2023-08-15T02:31:09.539Z,380.00
2023-08-15T02:32:09.544Z,384.00
2023-08-15T02:33:09.625Z,384.00
2023-08-15T02:34:09.592Z,384.00
2023-08-15T02:35:09.644Z,386.00
2023-08-15T02:36:09.659Z,385.00
2023-08-15T02:37:09.685Z,385.00
2023-08-15T02:38:09.744Z,383.00
2023-08-15T02:39:09.790Z,388.00
2023-08-15T02:40:09.806Z,388.00
2023-08-15T02:41:09.828Z,387.00
2023-08-15T02:42:09.850Z,386.00
2023-08-15T02:43:09.894Z,385.00
2023-08-15T02:44:09.921Z,384.00
2023-08-15T02:45:09.971Z,384.00
2023-08-15T02:46:10.036Z,382.00
2023-08-15T02:47:10.027Z,380.00
2023-08-15T02:48:10.067Z,381.00
2023-08-15T02:49:10.095Z,381.00
2023-08-15T02:50:10.157Z,380.00
2023-08-15T02:51:10.151Z,383.00
2023-08-15T02:52:10.169Z,382.00
2023-08-15T02:53:10.191Z,384.00
2023-08-15T02:54:10.270Z,382.00
2023-08-15T02:55:10.246Z,381.00
2023-08-15T02:56:10.271Z,383.00
2023-08-15T02:57:10.297Z,383.00
2023-08-15T02:58:10.351Z,384.00
2023-08-15T02:59:10.368Z,384.00
2023-08-15T03:00:10.412Z,384.00
2023-08-15T03:01:10.471Z,380.00
2023-08-15T03:02:10.482Z,378.00
2023-08-15T03:03:10.539Z,377.00
2023-08-15T03:04:10.518Z,378.00
2023-08-15T03:05:10.576Z,380.00
2023-08-15T03:06:10.590Z,380.00
2023-08-15T03:07:10.615Z,383.00
2023-08-15T03:08:10.670Z,383.00
2023-08-15T03:09:10.685Z,384.00
2023-08-15T03:10:10.730Z,384.00
2023-08-15T03:11:10.739Z,385.00
2023-08-15T03:12:10.771Z,383.00
2023-08-15T03:13:10.800Z,381.00
2023-08-15T03:14:10.843Z,382.00
2023-08-15T03:15:10.863Z,383.00
2023-08-15T03:16:10.889Z,381.00
2023-08-15T03:17:10.926Z,383.00
2023-08-15T03:18:10.984Z,384.00
2023-08-15T03:19:10.990Z,385.00
2023-08-15T03:20:11.027Z,386.00
2023-08-15T03:21:11.043Z,385.00
2023-08-15T03:22:11.089Z,381.00
2023-08-15T03:23:11.102Z,381.00
2023-08-15T03:24:11.133Z,382.00
2023-08-15T03:25:11.162Z,380.00
2023-08-15T03:26:11.201Z,381.00
2023-08-15T03:27:11.239Z,381.00
2023-08-15T03:28:11.265Z,380.00
2023-08-15T03:29:11.294Z,379.00
2023-08-15T03:30:11.351Z,379.00
2023-08-15T03:31:11.421Z,378.00
2023-08-15T03:32:11.436Z,377.00
2023-08-15T03:33:11.445Z,378.00
2023-08-15T03:34:11.452Z,379.00
2023-08-15T03:35:11.489Z,380.00
2023-08-15T03:36:11.518Z,379.00
2023-08-15T03:37:11.561Z,377.00
2023-08-15T03:38:11.594Z,377.00
2023-08-15T03:39:11.624Z,377.00
2023-08-15T03:40:11.670Z,377.00
2023-08-15T03:41:11.676Z,380.00
2023-08-15T03:42:11.713Z,381.00
2023-08-15T03:43:11.746Z,381.00
2023-08-15T03:44:11.779Z,382.00
2023-08-15T03:45:11.848Z,382.00
2023-08-15T03:46:11.915Z,379.00
2023-08-15T03:47:11.876Z,378.00
2023-08-15T03:48:11.896Z,377.00
2023-08-15T03:49:11.927Z,378.00
2023-08-15T03:50:11.985Z,380.00
2023-08-15T03:51:15.595Z,379.00
2023-08-15T03:52:12.987Z,379.00
2023-08-15T03:53:11.964Z,377.00
2023-08-15T03:54:11.960Z,376.00
2023-08-15T03:55:11.966Z,378.00
2023-08-15T03:56:11.948Z,380.00
2023-08-15T03:57:11.947Z,385.00
2023-08-15T03:58:11.925Z,384.00
2023-08-15T03:59:11.946Z,382.00
2023-08-15T04:00:11.906Z,383.00
2023-08-15T04:01:11.916Z,382.00
2023-08-15T04:02:11.921Z,381.00
2023-08-15T04:03:11.911Z,381.00
2023-08-15T04:04:11.957Z,381.00
2023-08-15T04:05:11.869Z,381.00
2023-08-15T04:06:11.880Z,378.00
2023-08-15T04:07:11.898Z,377.00
2023-08-15T04:08:11.960Z,378.00
2023-08-15T04:09:11.971Z,381.00
2023-08-15T04:10:12.004Z,380.00
2023-08-15T04:11:12.040Z,382.00
2023-08-15T04:12:12.081Z,381.00
2023-08-15T04:13:12.101Z,379.00
2023-08-15T04:14:12.140Z,381.00
2023-08-15T04:15:12.170Z,383.00
2023-08-15T04:16:12.255Z,385.00
2023-08-15T04:17:12.248Z,385.00
2023-08-15T04:18:12.287Z,386.00
2023-08-15T04:19:12.318Z,385.00
2023-08-15T04:20:12.345Z,387.00
2023-08-15T04:21:12.428Z,388.00
2023-08-15T04:22:12.419Z,385.00
2023-08-15T04:23:12.452Z,385.00
2023-08-15T04:24:12.486Z,385.00
2023-08-15T04:25:12.542Z,385.00
2023-08-15T04:26:12.546Z,387.00
2023-08-15T04:27:12.576Z,387.00
2023-08-15T04:28:12.620Z,385.00
2023-08-15T04:29:12.651Z,382.00
2023-08-15T04:30:12.671Z,382.00
2023-08-15T04:31:12.765Z,380.00
2023-08-15T04:32:12.733Z,380.00
2023-08-15T04:33:12.794Z,381.00
2023-08-15T04:34:12.801Z,379.00
2023-08-15T04:35:12.825Z,380.00
2023-08-15T04:36:12.861Z,378.00
2023-08-15T04:37:12.892Z,375.00
2023-08-15T04:38:12.920Z,376.00
2023-08-15T04:39:12.955Z,377.00
2023-08-15T04:40:13.550Z,378.00
2023-08-15T04:41:13.055Z,376.00
2023-08-15T04:42:13.054Z,377.00
2023-08-15T04:43:13.087Z,381.00
2023-08-15T04:44:13.115Z,382.00
2023-08-15T04:45:13.171Z,382.00
2023-08-15T04:46:13.235Z,382.00
2023-08-15T04:47:13.231Z,383.00
2023-08-15T04:48:13.470Z,381.00
2023-08-15T04:49:13.300Z,380.00
2023-08-15T04:50:13.327Z,379.00
2023-08-15T04:51:13.377Z,378.00
2023-08-15T04:52:13.422Z,375.00
2023-08-15T04:53:13.444Z,378.00
2023-08-15T04:54:13.476Z,380.00
2023-08-15T04:55:13.509Z,382.00
2023-08-15T04:56:13.572Z,384.00
2023-08-15T04:57:13.573Z,386.00
2023-08-15T04:58:13.612Z,388.00
2023-08-15T04:59:13.638Z,388.00
2023-08-15T05:00:13.676Z,387.00
2023-08-15T05:01:13.724Z,389.00
2023-08-15T05:02:13.727Z,390.00
2023-08-15T05:03:13.772Z,391.00
2023-08-15T05:04:13.806Z,391.00
2023-08-15T05:05:13.878Z,392.00
2023-08-15T05:06:13.862Z,392.00
2023-08-15T05:07:13.914Z,393.00
2023-08-15T05:08:13.924Z,393.00
2023-08-15T05:09:13.955Z,393.00
2023-08-15T05:10:14.023Z,393.00
2023-08-15T05:11:14.026Z,394.00
2023-08-15T05:12:14.058Z,393.00
2023-08-15T05:13:14.114Z,395.00
2023-08-15T05:14:14.118Z,396.00
2023-08-15T05:15:14.153Z,395.00
2023-08-15T05:16:14.236Z,394.00
2023-08-15T05:17:14.207Z,392.00
2023-08-15T05:18:14.252Z,393.00
2023-08-15T05:19:14.263Z,391.00
2023-08-15T05:20:14.293Z,390.00
2023-08-15T05:21:14.330Z,389.00
2023-08-15T05:22:14.411Z,388.00
2023-08-15T05:23:14.377Z,388.00
2023-08-15T05:24:14.412Z,389.00
2023-08-15T05:25:14.469Z,389.00
2023-08-15T05:26:14.469Z,389.00
2023-08-15T05:27:14.504Z,390.00
2023-08-15T05:28:14.519Z,391.00
2023-08-15T05:29:14.568Z,391.00
2023-08-15T05:30:14.598Z,390.00
2023-08-15T05:31:14.622Z,394.00
2023-08-15T05:32:14.644Z,395.00
2023-08-15T05:33:14.661Z,396.00
2023-08-15T05:34:14.691Z,396.00
2023-08-15T05:35:14.714Z,396.00
2023-08-15T05:36:14.747Z,397.00
2023-08-15T05:37:14.776Z,396.00
2023-08-15T05:38:14.813Z,396.00
2023-08-15T05:39:14.821Z,397.00
2023-08-15T05:40:14.874Z,396.00
2023-08-15T05:41:14.880Z,394.00
2023-08-15T05:42:14.894Z,391.00
2023-08-15T05:43:14.911Z,389.00
2023-08-15T05:44:14.943Z,387.00
2023-08-15T05:45:14.964Z,387.00
2023-08-15T05:46:15.064Z,386.00
2023-08-15T05:47:15.038Z,385.00
2023-08-15T05:48:15.053Z,386.00
2023-08-15T05:49:15.059Z,386.00
2023-08-15T05:50:15.077Z,386.00
2023-08-15T05:51:15.100Z,387.00
2023-08-15T05:52:15.165Z,390.00
2023-08-15T05:53:15.153Z,389.00
2023-08-15T05:54:15.193Z,391.00
2023-08-15T05:55:15.220Z,393.00
2023-08-15T05:56:15.238Z,391.00
2023-08-15T05:57:15.282Z,392.00
2023-08-15T05:58:15.291Z,391.00
2023-08-15T05:59:15.332Z,389.00
2023-08-15T06:00:15.354Z,389.00
2023-08-15T06:01:15.400Z,390.00
2023-08-15T06:02:15.413Z,390.00
2023-08-15T06:03:15.452Z,390.00
2023-08-15T06:04:15.464Z,390.00
2023-08-15T06:05:15.452Z,388.00
2023-08-15T06:06:15.473Z,393.00
2023-08-15T06:07:15.519Z,392.00
2023-08-15T06:08:15.534Z,392.00
2023-08-15T06:09:17.684Z,393.00
2023-08-15T06:10:15.542Z,395.00
2023-08-15T06:11:15.522Z,394.00
2023-08-15T06:12:15.590Z,393.00
2023-08-15T06:13:15.521Z,393.00
2023-08-15T06:14:15.528Z,396.00
2023-08-15T06:15:15.513Z,398.00
2023-08-15T06:16:15.534Z,399.00
2023-08-15T06:17:15.492Z,395.00
2023-08-15T06:18:15.507Z,395.00
2023-08-15T06:19:15.468Z,394.00
2023-08-15T06:20:15.464Z,396.00
2023-08-15T06:21:15.459Z,395.00
2023-08-15T06:22:15.457Z,395.00
2023-08-15T06:23:15.526Z,395.00
2023-08-15T06:24:15.439Z,396.00
2023-08-15T06:25:15.438Z,397.00
2023-08-15T06:26:15.423Z,396.00
2023-08-15T06:27:15.411Z,395.00
2023-08-15T06:28:15.788Z,394.00
2023-08-15T06:29:15.413Z,396.00
2023-08-15T06:30:15.405Z,396.00
2023-08-15T06:31:15.425Z,397.00
2023-08-15T06:32:15.380Z,398.00
2023-08-15T06:33:15.376Z,395.00
2023-08-15T06:34:15.368Z,393.00
2023-08-15T06:35:15.371Z,393.00
2023-08-15T06:36:15.408Z,391.00
2023-08-15T06:37:15.351Z,391.00
2023-08-15T06:38:15.344Z,391.00
2023-08-15T06:39:15.338Z,392.00
2023-08-15T06:40:15.324Z,393.00
2023-08-15T06:41:15.311Z,395.00
2023-08-15T06:42:15.314Z,397.00
2023-08-15T06:43:15.344Z,398.00
2023-08-15T06:44:15.323Z,396.00
2023-08-15T06:45:15.291Z,393.00
2023-08-15T06:46:15.331Z,391.00
2023-08-15T06:47:15.273Z,391.00
2023-08-15T06:48:15.311Z,393.00
2023-08-15T06:49:15.271Z,394.00
2023-08-15T06:50:15.260Z,392.00
2023-08-15T06:51:15.251Z,390.00
2023-08-15T06:52:15.234Z,390.00
2023-08-15T06:53:15.251Z,393.00
2023-08-15T06:54:15.216Z,392.00
2023-08-15T06:55:15.219Z,392.00
2023-08-15T06:56:15.238Z,391.00
2023-08-15T06:57:15.219Z,391.00
2023-08-15T06:58:15.199Z,391.00
2023-08-15T06:59:15.200Z,391.00
2023-08-15T07:00:15.179Z,391.00
2023-08-15T07:01:15.233Z,391.00
2023-08-15T07:02:15.173Z,391.00
2023-08-15T07:03:15.224Z,392.00
2023-08-15T07:04:15.142Z,393.00
2023-08-15T07:05:15.261Z,392.00
2023-08-15T07:06:15.159Z,391.00
2023-08-15T07:07:15.129Z,390.00
2023-08-15T07:08:15.148Z,392.00
2023-08-15T07:09:15.110Z,392.00
2023-08-15T07:10:15.135Z,390.00
2023-08-15T07:11:15.096Z,394.00
2023-08-15T07:12:15.102Z,393.00
2023-08-15T07:13:15.095Z,393.00
2023-08-15T07:14:15.088Z,391.00
2023-08-15T07:15:15.082Z,390.00
2023-08-15T07:16:15.095Z,389.00
2023-08-15T07:17:15.052Z,389.00
2023-08-15T07:18:15.061Z,386.00
2023-08-15T07:19:15.057Z,384.00
2023-08-15T07:20:15.051Z,384.00
2023-08-15T07:21:16.107Z,382.00
2023-08-15T07:22:15.023Z,383.00
2023-08-15T07:23:15.038Z,382.00
2023-08-15T07:24:15.017Z,384.00
2023-08-15T07:25:15.016Z,385.00
2023-08-15T07:26:15.006Z,388.00
2023-08-15T07:27:14.997Z,387.00
2023-08-15T07:28:14.980Z,388.00
2023-08-15T07:29:14.974Z,390.00
2023-08-15T07:30:14.987Z,391.00
2023-08-15T07:31:14.991Z,391.00
2023-08-15T07:32:14.976Z,393.00
2023-08-15T07:33:15.084Z,394.00
2023-08-15T07:34:14.953Z,394.00
2023-08-15T07:35:14.940Z,392.00
2023-08-15T07:36:14.933Z,392.00
2023-08-15T07:37:14.917Z,389.00
2023-08-15T07:38:14.908Z,389.00
2023-08-15T07:39:14.909Z,388.00
2023-08-15T07:40:14.895Z,389.00
2023-08-15T07:41:14.884Z,391.00
2023-08-15T07:42:14.888Z,394.00
2023-08-15T07:43:14.875Z,393.00
2023-08-15T07:44:14.872Z,392.00
2023-08-15T07:45:14.852Z,391.00
2023-08-15T07:46:15.513Z,390.00
2023-08-15T07:47:14.848Z,387.00
2023-08-15T07:48:14.846Z,387.00
2023-08-15T07:49:14.848Z,387.00
2023-08-15T07:50:14.902Z,389.00
2023-08-15T07:51:14.829Z,388.00
2023-08-15T07:52:14.813Z,389.00
2023-08-15T07:53:14.805Z,386.00
2023-08-15T07:54:14.819Z,382.00
2023-08-15T07:55:14.796Z,382.00
2023-08-15T07:56:14.794Z,384.00
2023-08-15T07:57:14.798Z,386.00
2023-08-15T07:58:14.794Z,388.00
2023-08-15T07:59:14.782Z,388.00
2023-08-15T08:00:15.393Z,387.00
2023-08-15T08:01:14.763Z,388.00
2023-08-15T08:02:14.756Z,387.00
2023-08-15T08:03:14.782Z,386.00
2023-08-15T08:04:14.749Z,387.00
2023-08-15T08:05:14.757Z,388.00
2023-08-15T08:06:37.136Z,388.00
2023-08-15T08:07:15.793Z,389.00
2023-08-15T08:08:14.712Z,390.00
2023-08-15T08:09:14.764Z,391.00
2023-08-15T08:10:14.706Z,390.00
2023-08-15T08:11:14.700Z,391.00
2023-08-15T08:12:14.669Z,390.00
2023-08-15T08:13:14.673Z,388.00
2023-08-15T08:14:14.665Z,387.00
2023-08-15T08:15:14.675Z,386.00
2023-08-15T08:16:14.689Z,388.00
2023-08-15T08:17:14.637Z,388.00
2023-08-15T08:18:14.644Z,389.00
2023-08-15T08:19:14.621Z,386.00
2023-08-15T08:20:14.624Z,384.00
2023-08-15T08:21:14.614Z,383.00
2023-08-15T08:22:14.651Z,384.00
2023-08-15T08:23:14.642Z,385.00
2023-08-15T08:24:14.598Z,385.00
2023-08-15T08:25:14.603Z,386.00
2023-08-15T08:26:14.631Z,383.00
2023-08-15T08:27:14.704Z,384.00
2023-08-15T08:28:14.727Z,385.00
2023-08-15T08:29:14.777Z,387.00
2023-08-15T08:30:14.857Z,387.00
2023-08-15T08:31:14.942Z,387.00
2023-08-15T08:32:14.954Z,390.00
2023-08-15T08:33:15.005Z,391.00
2023-08-15T08:34:15.128Z,392.00
2023-08-15T08:35:15.120Z,393.00
2023-08-15T08:36:15.170Z,393.00
2023-08-15T08:37:15.230Z,394.00
2023-08-15T08:38:15.307Z,393.00
2023-08-15T08:39:29.687Z,391.00
2023-08-15T08:40:16.338Z,391.00
2023-08-15T08:41:15.321Z,388.00
2023-08-15T08:42:15.307Z,391.00
2023-08-15T08:43:15.294Z,391.00
2023-08-15T08:44:15.293Z,390.00
2023-08-15T08:45:15.603Z,392.00
2023-08-15T08:46:15.302Z,391.00
2023-08-15T08:47:15.264Z,393.00
2023-08-15T08:48:15.286Z,394.00
2023-08-15T08:49:15.365Z,395.00
2023-08-15T08:50:15.431Z,395.00
2023-08-15T08:51:15.467Z,398.00
2023-08-15T08:52:15.537Z,400.00
2023-08-15T08:53:15.602Z,401.00
2023-08-15T08:54:19.212Z,400.00
2023-08-15T08:55:15.690Z,402.00
2023-08-15T08:56:15.659Z,399.00
2023-08-15T08:57:15.689Z,399.00
2023-08-15T08:58:15.697Z,399.00
2023-08-15T08:59:15.648Z,401.00
2023-08-15T09:00:15.631Z,401.00
2023-08-15T09:01:15.649Z,399.00
2023-08-15T09:02:15.634Z,401.00
2023-08-15T09:03:15.737Z,403.00
2023-08-15T09:04:15.592Z,402.00
2023-08-15T09:05:15.593Z,400.00
2023-08-15T09:06:15.592Z,400.00
2023-08-15T09:07:15.592Z,402.00
2023-08-15T09:08:15.571Z,402.00
2023-08-15T09:09:15.573Z,398.00
2023-08-15T09:10:15.566Z,397.00
2023-08-15T09:11:15.548Z,400.00
2023-08-15T09:12:15.540Z,399.00
2023-08-15T09:13:15.543Z,396.00
2023-08-15T09:14:15.547Z,396.00
2023-08-15T09:15:15.530Z,399.00
2023-08-15T09:16:15.535Z,400.00
2023-08-15T09:17:15.523Z,401.00
2023-08-15T09:18:15.502Z,401.00
2023-08-15T09:19:15.496Z,403.00
2023-08-15T09:20:15.701Z,402.00
2023-08-15T09:21:15.494Z,401.00
2023-08-15T09:22:15.518Z,403.00
2023-08-15T09:23:15.565Z,404.00
2023-08-15T09:24:15.588Z,404.00
2023-08-15T09:25:15.645Z,405.00
2023-08-15T09:26:15.696Z,406.00
2023-08-15T09:27:15.729Z,404.00
2023-08-15T09:28:15.771Z,406.00
2023-08-15T09:29:15.810Z,406.00
2023-08-15T09:30:15.889Z,406.00
2023-08-15T09:31:15.923Z,404.00
2023-08-15T09:32:15.955Z,403.00
2023-08-15T09:33:15.985Z,402.00
2023-08-15T09:34:16.053Z,402.00
2023-08-15T09:35:16.088Z,402.00
2023-08-15T09:36:16.129Z,402.00
2023-08-15T09:37:16.187Z,403.00
2023-08-15T09:38:16.202Z,402.00
2023-08-15T09:39:16.261Z,402.00
2023-08-15T09:40:16.290Z,400.00
2023-08-15T09:41:16.365Z,400.00
2023-08-15T09:42:16.369Z,400.00
2023-08-15T09:43:16.414Z,399.00
2023-08-15T09:44:16.450Z,401.00
2023-08-15T09:45:16.510Z,402.00
2023-08-15T09:46:16.582Z,401.00
2023-08-15T09:47:16.588Z,403.00
2023-08-15T09:48:16.621Z,401.00
2023-08-15T09:49:16.683Z,403.00
2023-08-15T09:50:16.758Z,401.00
2023-08-15T09:51:16.762Z,402.00
2023-08-15T09:52:16.804Z,398.00
2023-08-15T09:53:16.824Z,396.00
2023-08-15T09:54:16.871Z,397.00
2023-08-15T09:55:16.905Z,396.00
2023-08-15T09:56:16.940Z,393.00
2023-08-15T09:57:17.006Z,392.00
2023-08-15T09:58:17.022Z,393.00
2023-08-15T09:59:18.648Z,389.00
2023-08-15T10:00:17.131Z,389.00
2023-08-15T10:01:17.164Z,391.00
2023-08-15T10:02:17.163Z,391.00
2023-08-15T10:03:17.248Z,392.00
2023-08-15T10:04:17.224Z,395.00
2023-08-15T10:05:17.268Z,395.00
2023-08-15T10:06:17.305Z,393.00
2023-08-15T10:07:17.389Z,395.00
2023-08-15T10:08:17.355Z,393.00
2023-08-15T10:09:17.403Z,393.00
2023-08-15T10:10:17.430Z,393.00
2023-08-15T10:11:17.478Z,394.00
2023-08-15T10:12:19.240Z,395.00
2023-08-15T10:13:17.538Z,397.00
2023-08-15T10:14:17.573Z,396.00
2023-08-15T10:15:17.608Z,396.00
2023-08-15T10:16:17.713Z,395.00
2023-08-15T10:17:17.831Z,395.00
2023-08-15T10:18:17.733Z,395.00
2023-08-15T10:19:17.739Z,394.00
2023-08-15T10:20:17.780Z,393.00
2023-08-15T10:21:17.852Z,394.00
2023-08-15T10:22:17.876Z,395.00
2023-08-15T10:23:17.882Z,391.00
2023-08-15T10:24:17.910Z,390.00
2023-08-15T10:25:17.955Z,391.00
2023-08-15T10:26:18.009Z,391.00
2023-08-15T10:27:18.017Z,391.00
2023-08-15T10:28:18.056Z,392.00
2023-08-15T10:29:18.088Z,391.00
2023-08-15T10:30:18.137Z,389.00
2023-08-15T10:31:18.183Z,390.00
2023-08-15T10:32:18.289Z,389.00
2023-08-15T10:33:18.293Z,388.00
2023-08-15T10:34:18.276Z,387.00
2023-08-15T10:35:18.308Z,388.00
2023-08-15T10:36:18.342Z,390.00
2023-08-15T10:37:18.381Z,389.00
2023-08-15T10:38:18.416Z,389.00
2023-08-15T10:39:18.446Z,388.00
2023-08-15T10:40:18.479Z,387.00
2023-08-15T10:41:18.523Z,387.00
2023-08-15T10:42:18.557Z,389.00
2023-08-15T10:43:18.571Z,388.00
2023-08-15T10:44:18.608Z,386.00
2023-08-15T10:45:18.652Z,385.00
2023-08-15T10:46:18.774Z,385.00
2023-08-15T10:47:18.935Z,384.00
2023-08-15T10:48:18.735Z,386.00
2023-08-15T10:49:18.777Z,386.00
2023-08-15T10:50:19.340Z,385.00
2023-08-15T10:51:18.843Z,385.00
2023-08-15T10:52:19.159Z,383.00
2023-08-15T10:53:19.236Z,385.00
2023-08-15T10:54:18.946Z,387.00
2023-08-15T10:55:18.981Z,387.00
2023-08-15T10:56:19.017Z,389.00
2023-08-15T10:57:19.346Z,388.00
2023-08-15T10:58:19.084Z,387.00
2023-08-15T10:59:19.110Z,388.00
2023-08-15T11:00:19.148Z,386.00
2023-08-15T11:01:19.265Z,386.00
2023-08-15T11:02:19.225Z,387.00
2023-08-15T11:03:19.293Z,389.00
2023-08-15T11:04:19.331Z,391.00
2023-08-15T11:05:19.426Z,389.00
2023-08-15T11:06:19.414Z,387.00
2023-08-15T11:07:19.652Z,387.00
2023-08-15T11:08:19.426Z,387.00
2023-08-15T11:09:19.471Z,387.00
2023-08-15T11:10:19.502Z,388.00
2023-08-15T11:11:19.541Z,389.00
2023-08-15T11:12:19.579Z,387.00
2023-08-15T11:13:19.591Z,387.00
2023-08-15T11:14:19.793Z,388.00
2023-08-15T11:15:19.660Z,386.00
2023-08-15T11:16:19.758Z,384.00
2023-08-15T11:17:19.954Z,384.00
2023-08-15T11:18:19.819Z,384.00
2023-08-15T11:19:19.924Z,385.00
2023-08-15T11:20:19.830Z,386.00
2023-08-15T11:21:19.870Z,386.00
2023-08-15T11:22:19.912Z,388.00
2023-08-15T11:23:19.955Z,390.00
2023-08-15T11:24:19.972Z,390.00
2023-08-15T11:25:20.016Z,392.00
2023-08-15T11:26:20.039Z,392.00
2023-08-15T11:27:20.299Z,390.00
2023-08-15T11:28:20.147Z,385.00
2023-08-15T11:29:20.147Z,385.00
2023-08-15T11:30:20.198Z,383.00
2023-08-15T11:31:22.410Z,386.00
2023-08-15T11:32:20.238Z,384.00
2023-08-15T11:33:20.203Z,386.00
2023-08-15T11:34:20.205Z,387.00
2023-08-15T11:35:20.206Z,387.00
2023-08-15T11:36:20.196Z,388.00
2023-08-15T11:37:20.449Z,392.00
2023-08-15T11:38:20.183Z,392.00
2023-08-15T11:39:20.165Z,391.00
2023-08-15T11:40:20.169Z,393.00
2023-08-15T11:41:20.154Z,392.00
2023-08-15T11:42:20.158Z,390.00
2023-08-15T11:43:20.157Z,390.00
2023-08-15T11:44:20.137Z,389.00
2023-08-15T11:45:20.132Z,390.00
2023-08-15T11:46:20.246Z,393.00
2023-08-15T11:47:20.458Z,393.00
2023-08-15T11:48:20.111Z,392.00
2023-08-15T11:49:20.103Z,393.00
2023-08-15T11:50:22.196Z,393.00
2023-08-15T11:51:20.083Z,393.00
2023-08-15T11:52:20.541Z,391.00
2023-08-15T11:53:20.092Z,392.00
2023-08-15T11:54:20.061Z,395.00
2023-08-15T11:55:20.062Z,396.00
2023-08-15T11:56:20.068Z,394.00
2023-08-15T11:57:20.272Z,395.00
2023-08-15T11:58:20.053Z,395.00
2023-08-15T11:59:20.137Z,395.00
2023-08-15T12:00:20.032Z,396.00
2023-08-15T12:01:20.086Z,397.00
2023-08-15T12:02:20.022Z,395.00
2023-08-15T12:03:20.065Z,391.00
2023-08-15T12:04:20.024Z,392.00
2023-08-15T12:05:19.998Z,390.00
2023-08-15T12:06:20.028Z,389.00
2023-08-15T12:07:20.166Z,389.00
2023-08-15T12:08:19.985Z,387.00
2023-08-15T12:09:19.973Z,389.00
2023-08-15T12:10:19.966Z,391.00
2023-08-15T12:11:19.955Z,387.00
2023-08-15T12:12:20.294Z,390.00
2023-08-15T12:13:19.994Z,389.00
2023-08-15T12:14:20.037Z,390.00
2023-08-15T12:15:20.054Z,388.00
2023-08-15T12:16:20.110Z,388.00
2023-08-15T12:17:20.218Z,388.00
2023-08-15T12:18:20.187Z,391.00
2023-08-15T12:19:22.539Z,389.00
2023-08-15T12:20:20.197Z,384.00
2023-08-15T12:21:20.189Z,386.00
2023-08-15T12:22:20.455Z,385.00
2023-08-15T12:23:27.741Z,385.00
2023-08-15T12:24:21.178Z,388.00
2023-08-15T12:25:21.580Z,389.00
2023-08-15T12:26:20.161Z,390.00
2023-08-15T12:27:20.151Z,390.00
2023-08-15T12:28:20.150Z,395.00